createdAt,value
2016-11-21T00:00:37.732Z,0
2016-11-21T00:01:37.464Z,0
2016-11-21T00:02:37.789Z,0
2016-11-21T00:03:37.505Z,0
2016-11-21T00:04:37.239Z,0
2016-11-21T00:05:37.859Z,0
2016-11-21T00:06:36.988Z,0
2016-11-21T00:07:37.616Z,0
2016-11-21T00:08:37.961Z,0
2016-11-21T00:09:37.378Z,0
2016-11-21T00:10:37.698Z,0
2016-11-21T00:11:37.735Z,0
2016-11-21T00:12:37.760Z,0
2016-11-21T00:13:38.107Z,0
2016-11-21T00:14:37.821Z,0
2016-11-21T00:15:37.545Z,0
2016-11-21T00:16:37.875Z,0
2016-11-21T00:17:37.604Z,0
2016-11-21T00:18:38.238Z,0
2016-11-21T00:19:37.648Z,0
2016-11-21T00:20:37.989Z,0
2016-11-21T00:21:38.021Z,0
2016-11-21T00:22:38.050Z,0
2016-11-21T00:23:38.389Z,0
2016-11-21T00:24:38.109Z,0
2016-11-21T00:25:38.148Z,0
2016-11-21T00:26:38.467Z,0
2016-11-21T00:27:38.198Z,0
2016-11-21T00:28:38.527Z,0
2016-11-21T00:29:38.551Z,0
2016-11-21T00:30:38.281Z,0
2016-11-21T00:31:38.000Z,0
2016-11-21T00:32:38.629Z,0
2016-11-21T00:33:38.658Z,0
2016-11-21T00:34:38.692Z,0
2016-11-21T00:35:38.416Z,0
2016-11-21T00:36:38.757Z,0
2016-11-21T00:37:38.781Z,0
2016-11-21T00:38:38.806Z,0
2016-11-21T00:39:38.870Z,0
2016-11-21T00:40:37.947Z,0
2016-11-21T00:41:38.588Z,0
2016-11-21T00:42:38.916Z,0
2016-11-21T00:43:38.641Z,0
2016-11-21T00:44:38.978Z,0
2016-11-21T00:45:38.695Z,0
2016-11-21T00:46:38.438Z,0
2016-11-21T00:47:39.044Z,0
2016-11-21T00:48:39.121Z,0
2016-11-21T00:49:39.105Z,0
2016-11-21T00:50:39.130Z,0
2016-11-21T00:51:39.160Z,0
2016-11-21T00:52:38.929Z,0
2016-11-21T00:53:39.233Z,0
2016-11-21T00:54:39.253Z,0
2016-11-21T00:55:39.002Z,0
2016-11-21T00:56:39.311Z,0
2016-11-21T00:57:39.039Z,0
2016-11-21T00:58:39.072Z,0
2016-11-21T00:59:39.086Z,0
2016-11-21T01:00:39.134Z,0
2016-11-21T01:01:39.150Z,0
2016-11-21T01:02:39.477Z,0
2016-11-21T01:03:39.212Z,0
2016-11-21T01:04:39.533Z,0
2016-11-21T01:05:39.581Z,0
2016-11-21T01:06:38.986Z,0
2016-11-21T01:07:39.627Z,0
2016-11-21T01:08:39.643Z,0
2016-11-21T01:09:39.061Z,0
2016-11-21T01:10:39.099Z,0
2016-11-21T01:11:39.734Z,0
2016-11-21T01:12:39.463Z,0
2016-11-21T01:13:38.904Z,0
2016-11-21T01:14:39.513Z,0
2016-11-21T01:15:39.841Z,0
2016-11-21T01:16:39.590Z,0
2016-11-21T01:17:39.287Z,0
2016-11-21T01:18:39.317Z,0
2016-11-21T01:19:39.661Z,0
2016-11-21T01:20:39.688Z,0
2016-11-21T01:21:39.715Z,0
2016-11-21T01:22:40.030Z,0
2016-11-21T01:23:39.795Z,0
2016-11-21T01:24:40.096Z,0
2016-11-21T01:25:40.129Z,0
2016-11-21T01:26:39.861Z,0
2016-11-21T01:27:40.194Z,0
2016-11-21T01:28:39.912Z,0
2016-11-21T01:29:39.944Z,0
2016-11-21T01:30:40.003Z,0
2016-11-21T01:31:39.685Z,0
2016-11-21T01:32:39.425Z,0
2016-11-21T01:33:40.047Z,0
2016-11-21T01:34:40.379Z,0
2016-11-21T01:35:40.111Z,0
2016-11-21T01:36:39.833Z,0
2016-11-21T01:37:39.893Z,0
2016-11-21T01:38:40.514Z,0
2016-11-21T01:39:40.228Z,0
2016-11-21T01:40:40.553Z,0
2016-11-21T01:41:40.572Z,0
2016-11-21T01:42:40.010Z,0
2016-11-21T01:43:40.366Z,0
2016-11-21T01:44:40.363Z,0
2016-11-21T01:45:40.687Z,0
2016-11-21T01:46:40.416Z,0
2016-11-21T01:47:40.753Z,0
2016-11-21T01:48:40.474Z,0
2016-11-21T01:49:40.211Z,0
2016-11-21T01:50:40.853Z,0
2016-11-21T01:51:40.249Z,0
2016-11-21T01:52:40.289Z,0
2016-11-21T01:53:40.005Z,0
2016-11-21T01:54:40.947Z,0
2016-11-21T01:55:40.683Z,0
2016-11-21T01:56:40.708Z,0
2016-11-21T01:57:40.728Z,0
2016-11-21T01:58:40.753Z,0
2016-11-21T01:59:41.082Z,0
2016-11-21T02:00:40.798Z,0
2016-11-21T02:01:41.140Z,0
2016-11-21T02:02:41.176Z,0
2016-11-21T02:03:40.904Z,0
2016-11-21T02:04:40.918Z,0
2016-11-21T02:05:40.963Z,0
2016-11-21T02:06:40.984Z,0
2016-11-21T02:07:40.408Z,0
2016-11-21T02:08:41.037Z,0
2016-11-21T02:09:40.774Z,0
2016-11-21T02:10:41.110Z,0
2016-11-21T02:11:41.111Z,0
2016-11-21T02:12:41.144Z,0
2016-11-21T02:13:41.184Z,0
2016-11-21T02:14:41.518Z,0
2016-11-21T02:15:41.246Z,0
2016-11-21T02:16:40.955Z,0
2016-11-21T02:17:41.280Z,0
2016-11-21T02:18:41.640Z,0
2016-11-21T02:19:41.657Z,0
2016-11-21T02:20:41.678Z,0
2016-11-21T02:21:41.402Z,0
2016-11-21T02:22:41.440Z,0
2016-11-21T02:23:41.464Z,0
2016-11-21T02:24:41.172Z,0
2016-11-21T02:25:41.557Z,0
2016-11-21T02:26:41.846Z,0
2016-11-21T02:27:41.875Z,0
2016-11-21T02:28:41.304Z,0
2016-11-21T02:29:41.936Z,0
2016-11-21T02:30:41.977Z,0
2016-11-21T02:31:41.986Z,0
2016-11-21T02:32:41.423Z,0
2016-11-21T02:33:41.735Z,0
2016-11-21T02:34:41.777Z,0
2016-11-21T02:35:41.489Z,0
2016-11-21T02:36:41.840Z,0
2016-11-21T02:37:41.250Z,0
2016-11-21T02:38:41.879Z,0
2016-11-21T02:39:41.934Z,0
2016-11-21T02:40:41.641Z,0
2016-11-21T02:41:41.964Z,0
2016-11-21T02:42:41.993Z,0
2016-11-21T02:43:42.015Z,0
2016-11-21T02:44:41.751Z,0
2016-11-21T02:45:42.088Z,0
2016-11-21T02:46:42.102Z,0
2016-11-21T02:47:42.433Z,0
2016-11-21T02:48:42.167Z,0
2016-11-21T02:49:41.890Z,0
2016-11-21T02:50:42.524Z,0
2016-11-21T02:51:41.945Z,0
2016-11-21T02:52:41.981Z,0
2016-11-21T02:53:42.610Z,0
2016-11-21T02:54:42.633Z,0
2016-11-21T02:55:42.057Z,0
2016-11-21T02:56:42.675Z,0
2016-11-21T02:57:42.732Z,0
2016-11-21T02:58:42.750Z,0
2016-11-21T02:59:42.782Z,0
2016-11-21T03:00:42.200Z,0
2016-11-21T03:01:42.824Z,0
2016-11-21T03:02:42.857Z,0
2016-11-21T03:03:42.896Z,0
2016-11-21T03:04:42.918Z,0
2016-11-21T03:05:42.942Z,0
2016-11-21T03:06:42.979Z,0
2016-11-21T03:07:43.012Z,0
2016-11-21T03:08:42.733Z,0
2016-11-21T03:09:43.061Z,0
2016-11-21T03:10:43.087Z,0
2016-11-21T03:11:42.836Z,0
2016-11-21T03:12:43.148Z,0
2016-11-21T03:13:42.880Z,0
2016-11-21T03:14:42.893Z,0
2016-11-21T03:15:42.918Z,0
2016-11-21T03:16:42.954Z,0
2016-11-21T03:17:43.277Z,0
2016-11-21T03:18:43.008Z,0
2016-11-21T03:19:43.324Z,0
2016-11-21T03:20:43.374Z,0
2016-11-21T03:21:43.094Z,0
2016-11-21T03:22:43.115Z,0
2016-11-21T03:23:43.155Z,0
2016-11-21T03:24:43.168Z,0
2016-11-21T03:25:43.521Z,0
2016-11-21T03:26:42.621Z,0
2016-11-21T03:27:43.258Z,0
2016-11-21T03:28:43.295Z,0
2016-11-21T03:29:43.303Z,0
2016-11-21T03:30:43.040Z,0
2016-11-21T03:31:43.068Z,0
2016-11-21T03:32:43.705Z,0
2016-11-21T03:33:43.426Z,0
2016-11-21T03:34:43.155Z,0
2016-11-21T03:35:43.795Z,0
2016-11-21T03:36:43.509Z,0
2016-11-21T03:37:43.242Z,0
2016-11-21T03:38:43.574Z,0
2016-11-21T03:39:43.907Z,0
2016-11-21T03:40:43.635Z,0
2016-11-21T03:41:43.961Z,0
2016-11-21T03:42:43.984Z,0
2016-11-21T03:43:44.010Z,0
2016-11-21T03:44:43.133Z,0
2016-11-21T03:45:43.751Z,0
2016-11-21T03:46:44.091Z,0
2016-11-21T03:47:44.128Z,0
2016-11-21T03:48:43.849Z,0
2016-11-21T03:49:44.182Z,0
2016-11-21T03:50:43.906Z,0
2016-11-21T03:51:44.239Z,0
2016-11-21T03:52:44.261Z,0
2016-11-21T03:53:43.676Z,0
2016-11-21T03:54:44.025Z,0
2016-11-21T03:55:44.342Z,0
2016-11-21T03:56:44.370Z,0
2016-11-21T03:57:44.115Z,0
2016-11-21T03:58:44.428Z,0
2016-11-21T03:59:44.465Z,0
2016-11-21T04:00:44.489Z,0
2016-11-21T04:01:44.214Z,0
2016-11-21T04:02:44.550Z,0
2016-11-21T04:03:44.576Z,0
2016-11-21T04:04:44.301Z,0
2016-11-21T04:05:44.023Z,0
2016-11-21T04:06:44.662Z,0
2016-11-21T04:07:44.683Z,0
2016-11-21T04:08:44.751Z,0
2016-11-21T04:09:44.428Z,0
2016-11-21T04:10:44.467Z,0
2016-11-21T04:11:44.489Z,0
2016-11-21T04:12:44.206Z,0
2016-11-21T04:13:43.943Z,0
2016-11-21T04:14:44.583Z,0
2016-11-21T04:15:44.916Z,0
2016-11-21T04:16:44.632Z,0
2016-11-21T04:17:44.665Z,0
2016-11-21T04:18:44.386Z,0
2016-11-21T04:19:44.711Z,0
2016-11-21T04:20:44.162Z,0
2016-11-21T04:21:44.784Z,0
2016-11-21T04:22:44.809Z,0
2016-11-21T04:23:45.131Z,0
2016-11-21T04:24:44.852Z,0
2016-11-21T04:25:44.613Z,0
2016-11-21T04:26:44.912Z,0
2016-11-21T04:27:45.273Z,0
2016-11-21T04:28:45.278Z,0
2016-11-21T04:29:44.983Z,0
2016-11-21T04:30:45.036Z,0
2016-11-21T04:31:45.355Z,0
2016-11-21T04:32:45.072Z,0
2016-11-21T04:33:45.424Z,0
2016-11-21T04:34:45.162Z,0
2016-11-21T04:35:45.169Z,0
2016-11-21T04:36:45.234Z,0
2016-11-21T04:37:45.216Z,0
2016-11-21T04:38:45.280Z,0
2016-11-21T04:39:45.277Z,0
2016-11-21T04:40:45.605Z,0
2016-11-21T04:41:45.341Z,0
2016-11-21T04:42:45.650Z,0
2016-11-21T04:43:45.691Z,0
2016-11-21T04:44:45.418Z,0
2016-11-21T04:45:45.437Z,0
2016-11-21T04:46:45.806Z,0
2016-11-21T04:47:44.886Z,0
2016-11-21T04:48:45.828Z,0
2016-11-21T04:49:45.872Z,0
2016-11-21T04:50:45.293Z,0
2016-11-21T04:51:45.609Z,0
2016-11-21T04:52:45.346Z,0
2016-11-21T04:53:45.671Z,0
2016-11-21T04:54:45.996Z,0
2016-11-21T04:55:46.029Z,0
2016-11-21T04:56:45.453Z,0
2016-11-21T04:57:46.082Z,0
2016-11-21T04:58:45.794Z,0
2016-11-21T04:59:45.819Z,0
2016-11-21T05:00:45.868Z,0
2016-11-21T05:01:45.628Z,0
2016-11-21T05:02:45.614Z,0
2016-11-21T05:03:45.339Z,0
2016-11-21T05:04:45.983Z,0
2016-11-21T05:05:46.312Z,0
2016-11-21T05:06:46.020Z,0
2016-11-21T05:07:46.361Z,0
2016-11-21T05:08:46.085Z,0
2016-11-21T05:09:46.426Z,0
2016-11-21T05:10:46.459Z,0
2016-11-21T05:11:46.176Z,0
2016-11-21T05:12:46.204Z,0
2016-11-21T05:13:45.913Z,0
2016-11-21T05:14:45.946Z,0
2016-11-21T05:15:45.673Z,0
2016-11-21T05:16:46.627Z,0
2016-11-21T05:17:46.656Z,0
2016-11-21T05:18:46.061Z,0
2016-11-21T05:19:46.389Z,0
2016-11-21T05:20:46.736Z,0
2016-11-21T05:21:45.847Z,0
2016-11-21T05:22:46.475Z,0
2016-11-21T05:23:46.840Z,0
2016-11-21T05:24:46.833Z,0
2016-11-21T05:25:46.870Z,0
2016-11-21T05:26:46.603Z,0
2016-11-21T05:27:46.923Z,0
2016-11-21T05:28:46.947Z,0
2016-11-21T05:29:46.984Z,0
2016-11-21T05:30:47.020Z,0
2016-11-21T05:31:47.038Z,0
2016-11-21T05:32:47.079Z,0
2016-11-21T05:33:47.087Z,0
2016-11-21T05:34:47.124Z,0
2016-11-21T05:35:46.844Z,0
2016-11-21T05:36:46.865Z,0
2016-11-21T05:37:46.906Z,0
2016-11-21T05:38:46.909Z,0
2016-11-21T05:39:47.263Z,0
2016-11-21T05:40:47.290Z,0
2016-11-21T05:41:47.005Z,0
2016-11-21T05:42:47.325Z,0
2016-11-21T05:43:46.770Z,0
2016-11-21T05:44:47.086Z,0
2016-11-21T05:45:47.428Z,0
2016-11-21T05:46:47.148Z,0
2016-11-21T05:47:47.184Z,0
2016-11-21T05:48:47.529Z,0
2016-11-21T05:49:47.219Z,0
2016-11-21T05:50:46.958Z,0
2016-11-21T05:51:47.596Z,0
2016-11-21T05:52:47.652Z,0
2016-11-21T05:53:47.653Z,0
2016-11-21T05:54:47.681Z,0
2016-11-21T05:55:47.403Z,0
2016-11-21T05:56:47.439Z,0
2016-11-21T05:57:47.472Z,0
2016-11-21T05:58:47.484Z,0
2016-11-21T05:59:47.509Z,0
2016-11-21T06:00:47.838Z,0
2016-11-21T06:01:47.262Z,0
2016-11-21T06:02:47.626Z,0
2016-11-21T06:03:47.652Z,0
2016-11-21T06:04:47.673Z,0
2016-11-21T06:05:47.669Z,0
2016-11-21T06:06:47.704Z,0
2016-11-21T06:07:47.739Z,0
2016-11-21T06:08:48.059Z,0
2016-11-21T06:09:47.780Z,0
2016-11-21T06:10:48.120Z,0
2016-11-21T06:11:48.154Z,0
2016-11-21T06:12:47.879Z,0
2016-11-21T06:13:47.916Z,0
2016-11-21T06:14:47.933Z,0
2016-11-21T06:15:47.955Z,0
2016-11-21T06:16:48.297Z,0
2016-11-21T06:17:48.321Z,0
2016-11-21T06:18:48.047Z,0
2016-11-21T06:19:48.384Z,0
2016-11-21T06:20:47.793Z,0
2016-11-21T06:21:48.129Z,0
2016-11-21T06:22:48.442Z,0
2016-11-21T06:23:48.490Z,0
2016-11-21T06:24:48.526Z,0
2016-11-21T06:25:48.548Z,0
2016-11-21T06:26:47.961Z,0
2016-11-21T06:27:48.593Z,0
2016-11-21T06:28:48.631Z,0
2016-11-21T06:29:48.351Z,0
2016-11-21T06:30:48.081Z,0
2016-11-21T06:31:48.721Z,0
2016-11-21T06:32:48.442Z,0
2016-11-21T06:33:48.762Z,0
2016-11-21T06:34:48.491Z,0
2016-11-21T06:35:48.827Z,0
2016-11-21T06:36:48.856Z,4
2016-11-21T06:37:48.881Z,4
2016-11-21T06:38:48.610Z,4
2016-11-21T06:39:48.943Z,4
2016-11-21T06:40:48.967Z,4
2016-11-21T06:41:48.680Z,4
2016-11-21T06:42:48.717Z,4
2016-11-21T06:43:48.750Z,4
2016-11-21T06:44:48.778Z,4
2016-11-21T06:45:49.107Z,4
2016-11-21T06:46:49.136Z,8
2016-11-21T06:47:48.861Z,8
2016-11-21T06:48:49.193Z,4
2016-11-21T06:49:49.210Z,8
2016-11-21T06:50:49.247Z,8
2016-11-21T06:51:48.675Z,12
2016-11-21T06:52:49.305Z,12
2016-11-21T06:53:49.033Z,12
2016-11-21T06:54:49.066Z,16
2016-11-21T06:55:49.090Z,16
2016-11-21T06:56:49.431Z,16
2016-11-21T06:57:49.137Z,20
2016-11-21T06:58:49.168Z,20
2016-11-21T06:59:49.218Z,24
2016-11-21T07:00:49.534Z,24
2016-11-21T07:01:49.559Z,28
2016-11-21T07:02:48.984Z,32
2016-11-21T07:03:49.321Z,36
2016-11-21T07:04:49.342Z,40
2016-11-21T07:05:49.670Z,44
2016-11-21T07:06:49.403Z,44
2016-11-21T07:07:49.423Z,52
2016-11-21T07:08:49.756Z,52
2016-11-21T07:09:49.492Z,60
2016-11-21T07:10:49.825Z,60
2016-11-21T07:11:49.862Z,60
2016-11-21T07:12:49.859Z,64
2016-11-21T07:13:49.911Z,64
2016-11-21T07:14:49.640Z,64
2016-11-21T07:15:49.957Z,68
2016-11-21T07:16:50.006Z,68
2016-11-21T07:17:50.026Z,68
2016-11-21T07:18:50.051Z,68
2016-11-21T07:19:50.075Z,68
2016-11-21T07:20:50.096Z,64
2016-11-21T07:21:50.127Z,64
2016-11-21T07:22:50.153Z,68
2016-11-21T07:23:49.882Z,72
2016-11-21T07:24:50.207Z,80
2016-11-21T07:25:50.252Z,88
2016-11-21T07:26:49.669Z,92
2016-11-21T07:27:49.690Z,100
2016-11-21T07:28:50.342Z,96
2016-11-21T07:29:50.051Z,104
2016-11-21T07:30:49.771Z,108
2016-11-21T07:31:50.109Z,116
2016-11-21T07:32:50.172Z,108
2016-11-21T07:33:50.166Z,96
2016-11-21T07:34:50.190Z,88
2016-11-21T07:35:50.531Z,88
2016-11-21T07:36:49.956Z,84
2016-11-21T07:37:50.285Z,88
2016-11-21T07:38:50.601Z,92
2016-11-21T07:39:50.651Z,92
2016-11-21T07:40:50.667Z,100
2016-11-21T07:41:50.403Z,104
2016-11-21T07:42:50.124Z,108
2016-11-21T07:43:50.457Z,116
2016-11-21T07:44:50.486Z,120
2016-11-21T07:45:50.814Z,128
2016-11-21T07:46:50.839Z,128
2016-11-21T07:47:50.871Z,128
2016-11-21T07:48:50.285Z,128
2016-11-21T07:49:50.922Z,120
2016-11-21T07:50:50.358Z,128
2016-11-21T07:51:50.371Z,140
2016-11-21T07:52:50.711Z,144
2016-11-21T07:53:51.072Z,144
2016-11-21T07:54:51.061Z,140
2016-11-21T07:55:50.789Z,148
2016-11-21T07:56:50.834Z,160
2016-11-21T07:57:50.861Z,156
2016-11-21T07:58:50.879Z,168
2016-11-21T07:59:50.936Z,176
2016-11-21T08:00:51.245Z,180
2016-11-21T08:01:50.966Z,180
2016-11-21T08:02:51.291Z,184
2016-11-21T08:03:51.016Z,188
2016-11-21T08:04:50.745Z,192
2016-11-21T08:05:51.378Z,204
2016-11-21T08:06:51.110Z,224
2016-11-21T08:07:50.522Z,244
2016-11-21T08:08:51.472Z,252
2016-11-21T08:09:50.888Z,236
2016-11-21T08:10:51.224Z,232
2016-11-21T08:11:51.262Z,248
2016-11-21T08:12:51.274Z,264
2016-11-21T08:13:51.609Z,272
2016-11-21T08:14:51.024Z,272
2016-11-21T08:15:50.752Z,268
2016-11-21T08:16:51.679Z,268
2016-11-21T08:17:51.742Z,280
2016-11-21T08:18:51.772Z,288
2016-11-21T08:19:51.779Z,288
2016-11-21T08:20:51.817Z,280
2016-11-21T08:21:51.832Z,272
2016-11-21T08:22:51.866Z,256
2016-11-21T08:23:51.883Z,252
2016-11-21T08:24:51.923Z,252
2016-11-21T08:25:51.944Z,256
2016-11-21T08:26:51.660Z,276
2016-11-21T08:27:51.702Z,288
2016-11-21T08:28:52.038Z,296
2016-11-21T08:29:51.755Z,308
2016-11-21T08:30:52.083Z,324
2016-11-21T08:31:52.109Z,344
2016-11-21T08:32:51.837Z,368
2016-11-21T08:33:52.166Z,380
2016-11-21T08:34:52.210Z,360
2016-11-21T08:35:51.927Z,356
2016-11-21T08:36:51.656Z,344
2016-11-21T08:37:52.301Z,344
2016-11-21T08:38:52.319Z,348
2016-11-21T08:39:52.042Z,348
2016-11-21T08:40:51.775Z,376
2016-11-21T08:41:52.416Z,416
2016-11-21T08:42:51.824Z,432
2016-11-21T08:43:52.461Z,456
2016-11-21T08:44:52.182Z,436
2016-11-21T08:45:52.551Z,428
2016-11-21T08:46:52.540Z,468
2016-11-21T08:47:51.664Z,492
2016-11-21T08:48:52.605Z,456
2016-11-21T08:49:52.022Z,392
2016-11-21T08:50:52.655Z,364
2016-11-21T08:51:52.383Z,380
2016-11-21T08:52:52.108Z,412
2016-11-21T08:53:52.753Z,444
2016-11-21T08:54:52.462Z,412
2016-11-21T08:55:52.178Z,368
2016-11-21T08:56:52.828Z,364
2016-11-21T08:57:52.556Z,360
2016-11-21T08:58:52.877Z,348
2016-11-21T08:59:52.905Z,360
2016-11-21T09:00:52.946Z,368
2016-11-21T09:01:52.975Z,384
2016-11-21T09:02:53.004Z,396
2016-11-21T09:03:52.117Z,388
2016-11-21T09:04:52.753Z,404
2016-11-21T09:05:53.093Z,388
2016-11-21T09:06:52.494Z,380
2016-11-21T09:07:52.836Z,396
2016-11-21T09:08:53.167Z,416
2016-11-21T09:09:53.197Z,432
2016-11-21T09:10:52.917Z,448
2016-11-21T09:11:52.946Z,480
2016-11-21T09:12:53.279Z,488
2016-11-21T09:13:53.024Z,448
2016-11-21T09:14:53.037Z,432
2016-11-21T09:15:53.369Z,444
2016-11-21T09:16:53.090Z,452
2016-11-21T09:17:52.815Z,448
2016-11-21T09:18:53.467Z,384
2016-11-21T09:19:53.472Z,384
2016-11-21T09:20:53.516Z,396
2016-11-21T09:21:53.233Z,372
2016-11-21T09:22:53.558Z,360
2016-11-21T09:23:53.295Z,356
2016-11-21T09:24:53.612Z,336
2016-11-21T09:25:53.643Z,344
2016-11-21T09:26:53.069Z,380
2016-11-21T09:27:53.699Z,396
2016-11-21T09:28:53.434Z,416
2016-11-21T09:29:53.751Z,432
2016-11-21T09:30:53.487Z,452
2016-11-21T09:31:53.516Z,460
2016-11-21T09:32:53.848Z,492
2016-11-21T09:33:53.867Z,524
2016-11-21T09:34:53.887Z,560
2016-11-21T09:35:53.939Z,564
2016-11-21T09:36:53.935Z,544
2016-11-21T09:37:53.404Z,532
2016-11-21T09:38:54.009Z,532
2016-11-21T09:39:53.743Z,556
2016-11-21T09:40:54.066Z,556
2016-11-21T09:41:53.791Z,512
2016-11-21T09:42:53.808Z,476
2016-11-21T09:43:53.844Z,468
2016-11-21T09:44:54.177Z,464
2016-11-21T09:45:53.913Z,460
2016-11-21T09:46:54.242Z,436
2016-11-21T09:47:54.264Z,444
2016-11-21T09:48:53.988Z,472
2016-11-21T09:49:54.009Z,488
2016-11-21T09:50:54.353Z,500
2016-11-21T09:51:54.374Z,536
2016-11-21T09:52:54.434Z,568
2016-11-21T09:53:54.116Z,600
2016-11-21T09:54:54.905Z,556
2016-11-21T09:55:58.031Z,604
2016-11-21T09:56:54.206Z,680
2016-11-21T09:57:53.951Z,652
2016-11-21T09:58:54.267Z,664
2016-11-21T09:59:54.004Z,736
2016-11-21T10:00:53.733Z,716
2016-11-21T10:01:54.046Z,640
2016-11-21T10:02:54.677Z,560
2016-11-21T10:03:54.714Z,588
2016-11-21T10:04:54.739Z,612
2016-11-21T10:05:54.488Z,596
2016-11-21T10:06:54.482Z,592
2016-11-21T10:07:54.817Z,612
2016-11-21T10:08:54.547Z,604
2016-11-21T10:09:54.567Z,588
2016-11-21T10:10:54.896Z,604
2016-11-21T10:11:54.935Z,644
2016-11-21T10:12:54.665Z,684
2016-11-21T10:13:54.677Z,712
2016-11-21T10:14:54.711Z,752
2016-11-21T10:15:54.741Z,760
2016-11-21T10:16:55.075Z,812
2016-11-21T10:17:54.824Z,896
2016-11-21T10:18:54.526Z,956
2016-11-21T10:19:55.178Z,944
2016-11-21T10:20:55.195Z,960
2016-11-21T10:21:54.912Z,888
2016-11-21T10:22:55.250Z,752
2016-11-21T10:23:55.280Z,700
2016-11-21T10:24:54.693Z,740
2016-11-21T10:25:55.031Z,796
2016-11-21T10:26:55.055Z,832
2016-11-21T10:27:55.084Z,776
2016-11-21T10:28:55.404Z,736
2016-11-21T10:29:55.449Z,668
2016-11-21T10:30:55.174Z,648
2016-11-21T10:31:55.495Z,668
2016-11-21T10:32:55.531Z,700
2016-11-21T10:33:54.640Z,724
2016-11-21T10:34:55.581Z,748
2016-11-21T10:35:55.610Z,764
2016-11-21T10:36:55.634Z,760
2016-11-21T10:37:55.368Z,744
2016-11-21T10:38:55.406Z,728
2016-11-21T10:39:55.739Z,720
2016-11-21T10:40:55.461Z,736
2016-11-21T10:41:55.482Z,760
2016-11-21T10:42:55.806Z,788
2016-11-21T10:43:55.843Z,832
2016-11-21T10:44:55.260Z,816
2016-11-21T10:45:55.589Z,792
2016-11-21T10:46:55.927Z,768
2016-11-21T10:47:55.655Z,728
2016-11-21T10:48:55.979Z,716
2016-11-21T10:49:55.391Z,692
2016-11-21T10:50:55.420Z,688
2016-11-21T10:51:56.073Z,660
2016-11-21T10:52:55.481Z,696
2016-11-21T10:53:55.506Z,720
2016-11-21T10:54:55.543Z,740
2016-11-21T10:55:56.176Z,792
2016-11-21T10:56:56.209Z,836
2016-11-21T10:57:55.925Z,824
2016-11-21T10:58:55.950Z,800
2016-11-21T10:59:55.986Z,788
2016-11-21T11:00:55.999Z,764
2016-11-21T11:01:56.340Z,728
2016-11-21T11:02:56.377Z,724
2016-11-21T11:03:56.111Z,720
2016-11-21T11:04:56.110Z,736
2016-11-21T11:05:56.458Z,792
2016-11-21T11:06:55.888Z,932
2016-11-21T11:07:56.212Z,1112
2016-11-21T11:08:56.232Z,1244
2016-11-21T11:09:56.261Z,1248
2016-11-21T11:10:56.604Z,1176
2016-11-21T11:11:56.316Z,1068
2016-11-21T11:12:56.048Z,1024
2016-11-21T11:13:56.684Z,952
2016-11-21T11:14:56.710Z,932
2016-11-21T11:15:56.737Z,948
2016-11-21T11:16:56.473Z,948
2016-11-21T11:17:56.499Z,940
2016-11-21T11:18:56.836Z,920
2016-11-21T11:19:56.841Z,916
2016-11-21T11:20:55.965Z,908
2016-11-21T11:21:56.294Z,888
2016-11-21T11:22:56.959Z,844
2016-11-21T11:23:56.976Z,792
2016-11-21T11:24:56.688Z,740
2016-11-21T11:25:57.017Z,696
2016-11-21T11:26:56.748Z,696
2016-11-21T11:27:57.075Z,696
2016-11-21T11:28:56.788Z,672
2016-11-21T11:29:57.124Z,656
2016-11-21T11:30:57.161Z,644
2016-11-21T11:31:56.910Z,640
2016-11-21T11:32:56.608Z,640
2016-11-21T11:33:56.943Z,660
2016-11-21T11:34:57.283Z,664
2016-11-21T11:35:57.000Z,652
2016-11-21T11:36:57.326Z,664
2016-11-21T11:37:57.062Z,692
2016-11-21T11:38:57.099Z,696
2016-11-21T11:39:57.415Z,676
2016-11-21T11:40:57.438Z,660
2016-11-21T11:41:57.464Z,660
2016-11-21T11:42:57.498Z,680
2016-11-21T11:43:56.902Z,692
2016-11-21T11:44:56.975Z,696
2016-11-21T11:45:57.592Z,696
2016-11-21T11:46:57.013Z,680
2016-11-21T11:47:57.324Z,672
2016-11-21T11:48:57.666Z,676
2016-11-21T11:49:57.695Z,688
2016-11-21T11:50:57.416Z,700
2016-11-21T11:51:57.741Z,696
2016-11-21T11:52:57.784Z,692
2016-11-21T11:53:57.801Z,708
2016-11-21T11:54:57.532Z,704
2016-11-21T11:55:57.848Z,680
2016-11-21T11:56:57.888Z,640
2016-11-21T11:57:57.914Z,632
2016-11-21T11:58:57.950Z,636
2016-11-21T11:59:57.978Z,712
2016-11-21T12:00:57.699Z,760
2016-11-21T12:01:58.087Z,748
2016-11-21T12:02:57.480Z,748
2016-11-21T12:03:58.089Z,744
2016-11-21T12:04:57.821Z,748
2016-11-21T12:05:57.842Z,760
2016-11-21T12:06:57.872Z,816
2016-11-21T12:07:58.204Z,868
2016-11-21T12:08:58.228Z,912
2016-11-21T12:09:58.257Z,948
2016-11-21T12:10:58.282Z,900
2016-11-21T12:11:58.316Z,860
2016-11-21T12:12:58.347Z,836
2016-11-21T12:13:58.364Z,860
2016-11-21T12:14:57.788Z,940
2016-11-21T12:15:58.430Z,1000
2016-11-21T12:16:58.139Z,1068
2016-11-21T12:17:58.183Z,1132
2016-11-21T12:18:57.899Z,1172
2016-11-21T12:19:57.932Z,1088
2016-11-21T12:20:58.261Z,1084
2016-11-21T12:21:58.585Z,1036
2016-11-21T12:22:58.021Z,1016
2016-11-21T12:23:58.347Z,964
2016-11-21T12:24:58.084Z,852
2016-11-21T12:25:58.709Z,820
2016-11-21T12:26:57.829Z,840
2016-11-21T12:27:58.461Z,816
2016-11-21T12:28:58.490Z,844
2016-11-21T12:29:58.811Z,880
2016-11-21T12:30:58.848Z,908
2016-11-21T12:31:58.568Z,860
2016-11-21T12:32:58.602Z,788
2016-11-21T12:33:58.630Z,708
2016-11-21T12:34:58.335Z,640
2016-11-21T12:35:58.384Z,592
2016-11-21T12:36:59.060Z,592
2016-11-21T12:37:58.434Z,620
2016-11-21T12:38:58.454Z,668
2016-11-21T12:39:58.796Z,712
2016-11-21T12:40:58.523Z,712
2016-11-21T12:41:59.160Z,688
2016-11-21T12:42:59.186Z,688
2016-11-21T12:43:59.211Z,716
2016-11-21T12:44:58.935Z,752
2016-11-21T12:45:59.271Z,772
2016-11-21T12:46:58.992Z,712
2016-11-21T12:47:59.320Z,628
2016-11-21T12:48:59.350Z,560
2016-11-21T12:49:59.370Z,564
2016-11-21T12:50:59.407Z,612
2016-11-21T12:51:58.824Z,660
2016-11-21T12:52:59.456Z,740
2016-11-21T12:53:59.201Z,788
2016-11-21T12:54:58.598Z,816
2016-11-21T12:55:59.234Z,808
2016-11-21T12:56:59.275Z,776
2016-11-21T12:57:59.603Z,752
2016-11-21T12:58:59.633Z,772
2016-11-21T12:59:59.058Z,840
2016-11-21T13:00:59.374Z,924
2016-11-21T13:01:59.419Z,1048
2016-11-21T13:02:59.431Z,1064
2016-11-21T13:03:59.466Z,960
2016-11-21T13:04:59.788Z,892
2016-11-21T13:05:59.214Z,868
2016-11-21T13:06:59.552Z,868
2016-11-21T13:07:59.879Z,864
2016-11-21T13:08:59.908Z,808
2016-11-21T13:09:59.633Z,776
2016-11-21T13:11:00.002Z,776
2016-11-21T13:12:00.022Z,832
2016-11-21T13:12:59.702Z,840
2016-11-21T13:14:00.040Z,772
2016-11-21T13:14:59.772Z,852
2016-11-21T13:16:00.105Z,832
2016-11-21T13:17:00.129Z,768
2016-11-21T13:18:00.162Z,704
2016-11-21T13:18:59.891Z,636
2016-11-21T13:19:59.911Z,708
2016-11-21T13:20:59.940Z,824
2016-11-21T13:22:00.269Z,924
2016-11-21T13:23:00.298Z,908
2016-11-21T13:24:00.022Z,944
2016-11-21T13:25:00.075Z,932
2016-11-21T13:26:00.384Z,856
2016-11-21T13:27:00.098Z,804
2016-11-21T13:28:00.423Z,828
2016-11-21T13:29:00.449Z,740
2016-11-21T13:30:00.191Z,680
2016-11-21T13:31:00.215Z,688
2016-11-21T13:31:59.936Z,716
2016-11-21T13:33:00.272Z,608
2016-11-21T13:34:00.341Z,612
2016-11-21T13:35:00.633Z,596
2016-11-21T13:36:00.055Z,600
2016-11-21T13:37:00.387Z,664
2016-11-21T13:38:00.424Z,564
2016-11-21T13:39:00.414Z,608
2016-11-21T13:40:00.765Z,584
2016-11-21T13:41:00.790Z,592
2016-11-21T13:42:00.224Z,648
2016-11-21T13:42:59.936Z,600
2016-11-21T13:44:00.881Z,560
2016-11-21T13:45:00.910Z,516
2016-11-21T13:46:00.921Z,496
2016-11-21T13:47:00.351Z,516
2016-11-21T13:48:00.695Z,548
2016-11-21T13:49:01.024Z,572
2016-11-21T13:50:00.744Z,560
2016-11-21T13:51:00.469Z,532
2016-11-21T13:52:01.115Z,572
2016-11-21T13:53:00.527Z,596
2016-11-21T13:54:00.543Z,604
2016-11-21T13:55:00.877Z,736
2016-11-21T13:56:01.217Z,716
2016-11-21T13:57:01.250Z,780
2016-11-21T13:58:01.267Z,844
2016-11-21T13:59:01.284Z,824
2016-11-21T14:00:01.332Z,840
2016-11-21T14:01:01.349Z,836
2016-11-21T14:02:01.073Z,840
2016-11-21T14:03:01.414Z,820
2016-11-21T14:04:01.443Z,884
2016-11-21T14:05:01.156Z,988
2016-11-21T14:06:01.480Z,984
2016-11-21T14:07:01.517Z,860
2016-11-21T14:08:01.238Z,784
2016-11-21T14:09:01.578Z,696
2016-11-21T14:10:01.503Z,660
2016-11-21T14:11:01.628Z,628
2016-11-21T14:12:01.349Z,556
2016-11-21T14:13:01.667Z,488
2016-11-21T14:14:01.693Z,488
2016-11-21T14:15:01.127Z,536
2016-11-21T14:16:01.156Z,608